createdAt,value
2023-09-04T00:00:04.072Z,7.93
2023-09-04T00:02:39.859Z,8.07
2023-09-04T00:05:06.965Z,8.00
2023-09-04T00:07:33.450Z,8.40
2023-09-04T00:10:00.023Z,8.70
2023-09-04T00:12:26.697Z,8.43
2023-09-04T00:14:53.265Z,8.13
2023-09-04T00:17:19.763Z,8.20
2023-09-04T00:19:46.280Z,8.63
2023-09-04T00:22:13.604Z,7.87
2023-09-04T00:24:40.132Z,8.23
2023-09-04T00:27:06.620Z,8.10
2023-09-04T00:29:33.115Z,8.80
2023-09-04T00:31:59.622Z,8.80
2023-09-04T00:34:26.194Z,8.77
2023-09-04T00:36:52.720Z,9.30
2023-09-04T00:39:19.322Z,8.50
2023-09-04T00:41:46.847Z,9.57
2023-09-04T00:44:13.544Z,8.37
2023-09-04T00:46:42.158Z,9.20
2023-09-04T00:49:10.361Z,9.00
2023-09-04T00:51:37.086Z,9.83
2023-09-04T00:54:04.246Z,9.30
2023-09-04T00:56:31.515Z,8.97
2023-09-04T00:58:58.187Z,9.17
2023-09-04T01:01:25.343Z,8.50
2023-09-04T01:03:51.936Z,8.57
2023-09-04T01:06:18.492Z,9.27
2023-09-04T01:08:45.212Z,9.43
2023-09-04T01:11:14.748Z,9.30
2023-09-04T01:13:45.838Z,8.73
2023-09-04T01:16:12.882Z,8.77
2023-09-04T01:18:39.958Z,8.83
2023-09-04T01:21:07.225Z,9.47
2023-09-04T01:23:34.346Z,9.23
2023-09-04T01:26:07.931Z,9.10
2023-09-04T01:28:41.236Z,8.90
2023-09-04T01:31:15.545Z,9.60
2023-09-04T01:33:48.397Z,9.67
2023-09-04T01:36:16.023Z,9.00
2023-09-04T01:38:45.882Z,8.90
2023-09-04T01:41:13.112Z,9.43
2023-09-04T01:43:39.764Z,9.47
2023-09-04T01:46:06.657Z,8.80
2023-09-04T01:48:34.705Z,9.00
2023-09-04T01:51:01.484Z,9.20
2023-09-04T01:53:28.138Z,8.33
2023-09-04T01:55:54.681Z,8.83
2023-09-04T01:58:21.654Z,8.20
2023-09-04T02:00:51.261Z,8.57
2023-09-04T02:03:17.945Z,8.23
2023-09-04T02:05:45.140Z,9.13
2023-09-04T02:08:11.723Z,8.50
2023-09-04T02:10:38.613Z,8.37
2023-09-04T02:13:05.368Z,8.83
2023-09-04T02:15:32.517Z,8.67
2023-09-04T02:18:03.494Z,8.63
2023-09-04T02:20:30.834Z,8.93
2023-09-04T02:22:58.002Z,9.03
2023-09-04T02:25:25.375Z,8.97
2023-09-04T02:27:52.650Z,8.47
2023-09-04T02:30:19.382Z,8.63
2023-09-04T02:32:46.900Z,9.07
2023-09-04T02:35:13.543Z,8.93
2023-09-04T02:37:41.704Z,8.67
2023-09-04T02:40:08.827Z,9.20
2023-09-04T02:42:35.368Z,8.73
2023-09-04T02:45:02.449Z,9.93
2023-09-04T02:47:29.037Z,9.73
2023-09-04T02:49:56.586Z,10.43
2023-09-04T02:52:23.146Z,10.17
2023-09-04T02:54:49.798Z,10.60
2023-09-04T02:57:16.272Z,10.53
2023-09-04T02:59:42.838Z,10.33
2023-09-04T03:02:09.920Z,10.27
2023-09-04T03:04:36.451Z,10.30
2023-09-04T03:07:02.979Z,10.57
2023-09-04T03:09:29.607Z,10.27
2023-09-04T03:11:56.110Z,10.47
2023-09-04T03:14:22.695Z,9.83
2023-09-04T03:16:49.444Z,10.50
2023-09-04T03:19:16.012Z,9.57
2023-09-04T03:21:42.981Z,9.27
2023-09-04T03:24:09.682Z,9.47
2023-09-04T03:26:36.746Z,9.40
2023-09-04T03:29:03.336Z,8.37
2023-09-04T03:31:30.075Z,8.97
2023-09-04T03:33:57.885Z,8.63
2023-09-04T03:36:24.392Z,9.60
2023-09-04T03:38:50.937Z,8.90
2023-09-04T03:41:17.698Z,9.43
2023-09-04T03:43:44.253Z,9.33
2023-09-04T03:46:15.053Z,10.07
2023-09-04T03:48:41.734Z,9.57
2023-09-04T03:51:08.604Z,10.13
2023-09-04T03:53:35.109Z,10.13
2023-09-04T03:56:06.325Z,10.10
2023-09-04T03:58:33.363Z,9.43
2023-09-04T04:01:00.041Z,10.37
2023-09-04T04:03:28.946Z,10.23
2023-09-04T04:05:55.584Z,10.40
2023-09-04T04:08:22.519Z,10.33
2023-09-04T04:10:49.294Z,10.10
2023-09-04T04:13:15.810Z,9.30
2023-09-04T04:15:42.900Z,10.43
2023-09-04T04:18:11.051Z,10.60
2023-09-04T04:20:37.684Z,10.13
2023-09-04T04:23:04.480Z,10.77
2023-09-04T04:25:30.989Z,10.63
2023-09-04T04:27:57.511Z,10.10
2023-09-04T04:30:24.084Z,11.90
2023-09-04T04:32:52.077Z,10.50
2023-09-04T04:35:18.855Z,10.37
2023-09-04T04:37:45.441Z,11.23
2023-09-04T04:40:13.059Z,11.10
2023-09-04T04:42:41.016Z,10.83
2023-09-04T04:45:09.736Z,11.70
2023-09-04T04:47:36.642Z,10.63
2023-09-04T04:50:03.856Z,11.70
2023-09-04T04:52:30.421Z,11.23
2023-09-04T04:54:57.009Z,11.10
2023-09-04T04:57:23.998Z,10.60
2023-09-04T04:59:50.954Z,10.27
2023-09-04T05:02:22.102Z,10.67
2023-09-04T05:04:50.036Z,10.77
2023-09-04T05:07:18.506Z,10.17
2023-09-04T05:09:45.405Z,9.70
2023-09-04T05:12:12.206Z,10.13
2023-09-04T05:14:39.347Z,11.00
2023-09-04T05:17:06.432Z,10.03
2023-09-04T05:19:34.193Z,10.20
2023-09-04T05:22:00.767Z,9.90
2023-09-04T05:24:27.282Z,9.47
2023-09-04T05:26:53.808Z,10.57
2023-09-04T05:29:20.661Z,10.00
2023-09-04T05:31:51.797Z,9.43
2023-09-04T05:34:19.135Z,9.27
2023-09-04T05:36:48.587Z,9.10
2023-09-04T05:39:15.870Z,8.47
2023-09-04T05:41:42.421Z,8.77
2023-09-04T05:44:09.174Z,7.67
2023-09-04T05:46:35.962Z,7.43
2023-09-04T05:49:05.546Z,6.77
2023-09-04T05:51:32.069Z,7.20
2023-09-04T05:53:58.659Z,7.40
2023-09-04T05:56:25.150Z,6.23
2023-09-04T05:58:52.663Z,6.67
2023-09-04T06:01:21.562Z,6.63
2023-09-04T06:03:48.268Z,6.60
2023-09-04T06:06:15.919Z,6.27
2023-09-04T06:08:42.656Z,6.57
2023-09-04T06:11:09.167Z,6.27
2023-09-04T06:13:35.672Z,6.13
2023-09-04T06:16:02.924Z,5.63
2023-09-04T06:18:30.800Z,6.00
2023-09-04T06:20:57.535Z,6.03
2023-09-04T06:23:24.618Z,5.97
2023-09-04T06:25:51.298Z,6.30
2023-09-04T06:28:18.125Z,5.70
2023-09-04T06:30:46.175Z,5.70
2023-09-04T06:33:13.103Z,5.90
2023-09-04T06:35:39.757Z,5.63
2023-09-04T06:38:06.987Z,5.40
2023-09-04T06:40:33.723Z,5.37
2023-09-04T06:43:00.275Z,5.57
2023-09-04T06:45:27.091Z,5.27
2023-09-04T06:47:54.240Z,5.43
2023-09-04T06:50:20.847Z,5.27
2023-09-04T06:52:47.593Z,5.40
2023-09-04T06:55:14.188Z,5.43
2023-09-04T06:57:40.808Z,5.10
2023-09-04T07:00:12.369Z,5.13
2023-09-04T07:02:39.519Z,4.50
2023-09-04T07:05:08.367Z,5.47
2023-09-04T07:07:38.146Z,5.37
2023-09-04T07:10:07.941Z,5.10
2023-09-04T07:12:38.366Z,5.13
2023-09-04T07:15:05.372Z,5.10
2023-09-04T07:17:32.092Z,5.27
2023-09-04T07:19:58.688Z,4.53
2023-09-04T07:22:28.032Z,5.00
2023-09-04T07:24:54.593Z,5.43
2023-09-04T07:27:21.165Z,4.53
2023-09-04T07:29:48.091Z,4.83
2023-09-04T07:32:14.609Z,5.10
2023-09-04T07:34:41.087Z,4.67
2023-09-04T07:37:07.667Z,4.67
2023-09-04T07:39:34.234Z,4.93
2023-09-04T07:42:01.311Z,4.20
2023-09-04T07:44:27.825Z,5.40
2023-09-04T07:46:54.412Z,4.33
2023-09-04T07:49:20.994Z,4.70
2023-09-04T07:51:47.515Z,4.70
2023-09-04T07:54:14.020Z,5.17
2023-09-04T07:56:42.679Z,4.63
2023-09-04T07:59:10.634Z,4.77
2023-09-04T08:01:37.288Z,4.87
2023-09-04T08:04:04.161Z,5.90
2023-09-04T08:06:30.822Z,5.60
2023-09-04T08:08:57.528Z,5.63
2023-09-04T08:11:24.204Z,5.20
2023-09-04T08:13:50.894Z,4.67
2023-09-04T08:16:17.447Z,4.33
2023-09-04T08:18:44.012Z,4.90
2023-09-04T08:21:10.576Z,4.80
2023-09-04T08:23:37.258Z,4.53
2023-09-04T08:26:04.788Z,4.60
2023-09-04T08:28:31.550Z,4.43
2023-09-04T08:30:58.351Z,4.67
2023-09-04T08:33:25.548Z,4.23
2023-09-04T08:35:52.340Z,4.37
2023-09-04T08:38:18.826Z,5.10
2023-09-04T08:40:46.342Z,4.50
2023-09-04T08:43:13.285Z,4.90
2023-09-04T08:45:43.108Z,4.47
2023-09-04T08:48:11.575Z,4.20
2023-09-04T08:50:38.466Z,3.80
2023-09-04T08:53:05.721Z,3.93
2023-09-04T08:55:35.065Z,4.00
2023-09-04T08:58:02.428Z,4.00
2023-09-04T09:00:30.014Z,3.53
2023-09-04T09:03:02.917Z,3.50
2023-09-04T09:05:31.912Z,3.63
2023-09-04T09:07:59.131Z,3.47
2023-09-04T09:10:25.762Z,3.57
2023-09-04T09:12:52.286Z,3.50
2023-09-04T09:15:19.544Z,3.70
2023-09-04T09:17:50.921Z,3.60
2023-09-04T09:20:37.685Z,3.33
2023-09-04T09:23:07.706Z,3.17
2023-09-04T09:25:35.607Z,3.33
2023-09-04T09:28:04.148Z,3.07
2023-09-04T09:30:38.613Z,3.07
2023-09-04T09:33:09.068Z,3.40
2023-09-04T09:35:35.730Z,3.33
2023-09-04T09:38:02.485Z,3.30
2023-09-04T09:40:29.898Z,2.67
2023-09-04T09:42:56.494Z,2.90
2023-09-04T09:45:23.065Z,2.90
2023-09-04T09:47:52.868Z,2.87
2023-09-04T09:50:22.461Z,2.90
2023-09-04T09:53:06.136Z,2.77
2023-09-04T09:55:34.468Z,2.70
2023-09-04T09:58:02.373Z,2.67
2023-09-04T10:00:30.056Z,3.27
2023-09-04T10:02:56.913Z,2.67
2023-09-04T10:05:24.898Z,2.60
2023-09-04T10:07:58.470Z,2.90
2023-09-04T10:10:25.417Z,3.00
2023-09-04T10:13:00.929Z,3.17
2023-09-04T10:15:29.757Z,2.80
2023-09-04T10:18:18.148Z,3.10
2023-09-04T10:20:44.793Z,3.30
2023-09-04T10:23:14.493Z,2.90
2023-09-04T10:25:55.487Z,2.90
2023-09-04T10:28:42.887Z,3.10
2023-09-04T10:31:11.830Z,3.17
2023-09-04T10:33:39.046Z,3.80
2023-09-04T10:36:06.837Z,2.83
2023-09-04T10:38:35.080Z,2.70
2023-09-04T10:41:02.336Z,2.93
2023-09-04T10:43:44.707Z,2.77
2023-09-04T10:46:13.715Z,3.13
2023-09-04T10:48:48.402Z,2.97
2023-09-04T10:51:38.453Z,3.23
2023-09-04T10:54:14.003Z,3.07
2023-09-04T10:56:53.608Z,2.70
2023-09-04T10:59:20.026Z,2.97
2023-09-04T11:01:46.837Z,2.90
2023-09-04T11:04:47.353Z,3.17
2023-09-04T11:07:16.936Z,2.63
2023-09-04T11:09:43.452Z,2.90
2023-09-04T11:12:19.601Z,3.13
2023-09-04T11:14:47.286Z,2.60
2023-09-04T11:17:16.798Z,2.47
2023-09-04T11:19:44.714Z,2.70
2023-09-04T11:22:20.552Z,2.80
2023-09-04T11:24:47.343Z,2.40
2023-09-04T11:27:13.935Z,2.43
2023-09-04T11:29:40.499Z,2.07
2023-09-04T11:32:08.853Z,2.40
2023-09-04T11:34:36.427Z,2.53
2023-09-04T11:37:03.159Z,2.23
2023-09-04T11:39:29.730Z,2.20
2023-09-04T11:41:56.424Z,2.00
2023-09-04T11:44:23.105Z,2.00
2023-09-04T11:46:49.836Z,2.17
2023-09-04T11:49:16.461Z,2.20
2023-09-04T11:51:45.283Z,1.80
2023-09-04T11:54:12.093Z,2.10
2023-09-04T11:56:38.621Z,1.85
2023-09-04T11:59:06.779Z,2.10
2023-09-04T12:01:33.713Z,2.20
2023-09-04T12:04:03.202Z,1.92
2023-09-04T12:06:29.918Z,2.00
2023-09-04T12:08:56.536Z,1.63
2023-09-04T12:11:23.257Z,1.90
2023-09-04T12:13:49.994Z,2.20
2023-09-04T12:16:18.322Z,1.60
2023-09-04T12:18:45.072Z,1.95
2023-09-04T12:21:12.208Z,1.85
2023-09-04T12:23:42.374Z,2.00
2023-09-04T12:26:11.039Z,1.90
2023-09-04T12:28:37.913Z,2.00
2023-09-04T12:31:06.762Z,2.13
2023-09-04T12:33:38.347Z,1.95
2023-09-04T12:36:07.314Z,1.77
2023-09-04T12:38:33.806Z,1.80
2023-09-04T12:41:00.368Z,1.75
2023-09-04T12:43:26.865Z,2.10
2023-09-04T12:45:53.461Z,2.00
2023-09-04T12:48:20.051Z,1.98
2023-09-04T12:50:46.740Z,2.03
2023-09-04T12:53:13.476Z,2.05
2023-09-04T12:55:40.118Z,1.90
2023-09-04T12:58:13.702Z,2.17
2023-09-04T13:00:42.306Z,2.00
2023-09-04T13:03:10.004Z,2.08
2023-09-04T13:05:36.752Z,1.77
2023-09-04T13:08:03.970Z,1.83
2023-09-04T13:10:30.603Z,1.60
2023-09-04T13:12:57.266Z,1.75
2023-09-04T13:15:23.844Z,1.50
2023-09-04T13:17:50.947Z,1.77
2023-09-04T13:20:17.663Z,1.50
2023-09-04T13:22:47.051Z,1.60
2023-09-04T13:25:13.750Z,1.65
2023-09-04T13:27:40.973Z,1.45
2023-09-04T13:30:09.952Z,1.40
2023-09-04T13:32:37.255Z,1.48
2023-09-04T13:35:09.150Z,1.50
2023-09-04T13:37:37.435Z,1.58
2023-09-04T13:40:05.481Z,1.65
2023-09-04T13:42:32.562Z,1.48
2023-09-04T13:44:59.479Z,1.65
2023-09-04T13:47:27.378Z,1.67
2023-09-04T13:49:55.352Z,1.52
2023-09-04T13:52:25.519Z,1.33
2023-09-04T13:54:56.171Z,1.40
2023-09-04T13:57:24.529Z,1.90
2023-09-04T13:59:51.394Z,1.55
2023-09-04T14:02:18.177Z,1.50
2023-09-04T14:04:45.216Z,1.50
2023-09-04T14:07:12.033Z,1.80
2023-09-04T14:09:38.740Z,1.67
2023-09-04T14:12:06.162Z,1.77
2023-09-04T14:14:32.915Z,1.90
2023-09-04T14:16:59.502Z,1.70
2023-09-04T14:19:26.072Z,1.53
2023-09-04T14:21:55.098Z,1.63
2023-09-04T14:24:22.111Z,1.70
2023-09-04T14:26:48.701Z,1.50
2023-09-04T14:29:15.286Z,1.63
2023-09-04T14:31:42.215Z,1.73
2023-09-04T14:34:08.913Z,2.20
2023-09-04T14:36:35.559Z,1.80
2023-09-04T14:39:02.221Z,1.80
2023-09-04T14:41:57.302Z,1.73
2023-09-04T14:44:23.963Z,1.60
2023-09-04T14:46:50.502Z,1.63
2023-09-04T14:49:17.063Z,2.00
2023-09-04T14:51:46.051Z,1.87
2023-09-04T14:54:12.610Z,1.87
2023-09-04T14:56:39.138Z,2.07
2023-09-04T14:59:05.809Z,2.00
2023-09-04T15:01:32.423Z,1.50
2023-09-04T15:04:02.958Z,2.17
2023-09-04T15:06:31.041Z,2.00
2023-09-04T15:08:57.731Z,1.80
2023-09-04T15:11:25.732Z,1.80
2023-09-04T15:13:52.283Z,1.93
2023-09-04T15:16:18.767Z,2.10
2023-09-04T15:18:45.338Z,1.50
2023-09-04T15:21:11.893Z,2.30
2023-09-04T15:23:38.601Z,2.10
2023-09-04T15:26:05.139Z,1.90
2023-09-04T15:28:32.199Z,2.30
2023-09-04T15:30:59.217Z,2.20
2023-09-04T15:33:27.380Z,1.93
2023-09-04T15:35:55.682Z,2.33
2023-09-04T15:38:22.179Z,2.00
2023-09-04T15:40:48.709Z,2.00
2023-09-04T15:43:15.640Z,1.90
2023-09-04T15:45:42.639Z,2.00
2023-09-04T15:48:09.432Z,1.80
2023-09-04T15:50:36.232Z,2.13
2023-09-04T15:53:03.596Z,1.80
2023-09-04T15:55:30.514Z,2.03
2023-09-04T15:57:57.148Z,2.10
2023-09-04T16:00:23.678Z,1.77
2023-09-04T16:02:50.352Z,1.83
2023-09-04T16:05:17.012Z,1.87
2023-09-04T16:07:43.539Z,1.90
2023-09-04T16:10:10.312Z,1.70
2023-09-04T16:12:36.865Z,2.27
2023-09-04T16:15:04.580Z,2.00
2023-09-04T16:17:31.203Z,2.03
2023-09-04T16:19:59.078Z,2.03
2023-09-04T16:22:25.676Z,1.87
2023-09-04T16:24:52.190Z,1.80
2023-09-04T16:27:18.734Z,2.03
2023-09-04T16:29:45.229Z,2.07
2023-09-04T16:32:12.143Z,1.63
2023-09-04T16:34:38.689Z,1.80
2023-09-04T16:37:05.791Z,2.10
2023-09-04T16:39:32.425Z,2.03
2023-09-04T16:41:59.128Z,2.03
2023-09-04T16:44:25.768Z,2.00
2023-09-04T16:46:52.268Z,1.90
2023-09-04T16:49:18.862Z,2.00
2023-09-04T16:51:54.406Z,2.23
2023-09-04T16:54:24.079Z,1.80
2023-09-04T16:56:50.541Z,2.13
2023-09-04T16:59:17.034Z,2.10
2023-09-04T17:01:43.550Z,2.00
2023-09-04T17:04:10.171Z,1.83
2023-09-04T17:06:36.754Z,1.83
2023-09-04T17:09:04.580Z,2.30
2023-09-04T17:11:31.074Z,2.00
2023-09-04T17:13:57.575Z,1.83
2023-09-04T17:16:24.152Z,2.13
2023-09-04T17:18:50.995Z,1.83
2023-09-04T17:21:17.849Z,2.30
2023-09-04T17:23:44.408Z,2.13
2023-09-04T17:26:11.092Z,2.20
2023-09-04T17:28:37.698Z,2.30
2023-09-04T17:31:07.185Z,2.23
2023-09-04T17:33:34.189Z,2.50
2023-09-04T17:36:05.012Z,2.17
2023-09-04T17:38:34.518Z,2.30
2023-09-04T17:41:08.498Z,2.13
2023-09-04T17:43:35.264Z,2.20
2023-09-04T17:46:01.897Z,2.67
2023-09-04T17:48:30.140Z,2.40
2023-09-04T17:50:56.694Z,2.60
2023-09-04T17:53:23.319Z,2.83
2023-09-04T17:55:50.030Z,2.80
2023-09-04T17:58:16.597Z,2.50
2023-09-04T18:00:43.189Z,3.97
2023-09-04T18:03:13.628Z,6.13
2023-09-04T18:05:40.306Z,4.90
2023-09-04T18:08:08.228Z,3.40
2023-09-04T18:10:35.335Z,3.27
2023-09-04T18:13:01.849Z,3.80
2023-09-04T18:15:28.398Z,3.60
2023-09-04T18:17:54.956Z,3.30
2023-09-04T18:20:21.475Z,3.93
2023-09-04T18:22:48.030Z,4.30
2023-09-04T18:25:16.134Z,3.70
2023-09-04T18:27:44.202Z,3.17
2023-09-04T18:30:12.422Z,3.80
2023-09-04T18:32:39.130Z,3.70
2023-09-04T18:35:06.764Z,3.13
2023-09-04T18:37:33.469Z,2.53
2023-09-04T18:39:59.998Z,2.40
2023-09-04T18:42:26.707Z,2.53
2023-09-04T18:44:53.210Z,2.40
2023-09-04T18:47:19.755Z,2.50
2023-09-04T18:49:50.043Z,3.10
2023-09-04T18:52:16.688Z,3.30
2023-09-04T18:54:43.536Z,3.60
2023-09-04T18:57:10.010Z,3.17
2023-09-04T18:59:38.074Z,2.63
2023-09-04T19:02:04.955Z,2.90
2023-09-04T19:04:31.575Z,2.90
2023-09-04T19:06:58.076Z,2.47
2023-09-04T19:09:24.824Z,2.40
2023-09-04T19:11:51.486Z,2.50
2023-09-04T19:14:17.981Z,2.53
2023-09-04T19:16:44.478Z,2.57
2023-09-04T19:19:11.284Z,2.30
2023-09-04T19:21:37.882Z,2.03
2023-09-04T19:24:04.712Z,2.40
2023-09-04T19:26:31.462Z,1.87
2023-09-04T19:28:57.931Z,2.47
2023-09-04T19:32:12.872Z,2.80
2023-09-04T19:42:06.811Z,2.70
2023-09-04T19:59:55.287Z,2.80
2023-09-04T20:03:00.845Z,2.73
2023-09-04T20:12:43.676Z,2.83
2023-09-04T20:36:58.300Z,2.70
2023-09-04T20:40:11.981Z,2.90
2023-09-04T20:42:41.953Z,2.40
2023-09-04T20:45:10.197Z,3.33
2023-09-04T20:47:40.817Z,2.60
2023-09-04T20:51:02.830Z,2.73
2023-09-04T20:54:26.529Z,3.00
2023-09-04T20:57:10.384Z,3.07
2023-09-04T21:08:56.740Z,2.70
2023-09-04T21:12:12.973Z,3.20
2023-09-04T21:15:20.252Z,3.07
2023-09-04T21:21:46.115Z,3.20
2023-09-04T21:24:32.247Z,3.17
2023-09-04T21:30:31.050Z,3.63
2023-09-04T21:33:31.382Z,3.20
2023-09-04T21:36:24.197Z,3.37
2023-09-04T21:39:11.788Z,3.17
2023-09-04T21:42:04.359Z,3.17
2023-09-04T21:44:49.421Z,3.50
2023-09-04T21:47:34.650Z,3.30
2023-09-04T21:50:19.751Z,3.20
2023-09-04T21:53:04.959Z,3.20
2023-09-04T21:55:49.776Z,3.10
2023-09-04T21:58:35.042Z,3.30
2023-09-04T22:01:20.024Z,3.10
2023-09-04T22:04:04.805Z,3.60
2023-09-04T22:06:49.964Z,3.10
2023-09-04T22:09:34.907Z,3.63
2023-09-04T22:12:19.877Z,3.20
2023-09-04T22:15:04.784Z,3.40
2023-09-04T22:17:49.755Z,3.17
2023-09-04T22:20:34.944Z,2.73
2023-09-04T22:23:19.925Z,2.43
2023-09-04T22:26:05.015Z,3.20
2023-09-04T22:28:49.906Z,3.10
2023-09-04T22:31:34.995Z,3.17
2023-09-04T22:34:20.255Z,3.17
2023-09-04T22:37:05.135Z,3.10
2023-09-04T22:39:50.045Z,2.90
2023-09-04T22:42:34.870Z,3.40
2023-09-04T22:45:19.746Z,3.03
2023-09-04T22:48:04.888Z,2.80
2023-09-04T22:50:50.098Z,2.87
2023-09-04T22:53:34.985Z,2.93
2023-09-04T22:56:20.199Z,3.33
2023-09-04T22:59:05.198Z,2.73
2023-09-04T23:01:51.848Z,2.70
2023-09-04T23:04:37.082Z,3.03
2023-09-04T23:07:22.046Z,3.43
2023-09-04T23:10:09.736Z,2.77
2023-09-04T23:12:55.942Z,2.80
2023-09-04T23:15:41.061Z,3.40
2023-09-04T23:18:26.071Z,3.07
2023-09-04T23:21:04.838Z,3.00
2023-09-04T23:23:36.899Z,3.30
2023-09-04T23:26:07.314Z,3.00
2023-09-04T23:28:34.488Z,3.07
2023-09-04T23:31:01.496Z,3.40
2023-09-04T23:33:39.042Z,3.30
2023-09-04T23:36:46.939Z,3.00
2023-09-04T23:39:22.246Z,3.30
2023-09-04T23:42:07.542Z,3.30
2023-09-04T23:44:52.342Z,2.67
2023-09-04T23:47:18.833Z,3.40
2023-09-04T23:49:45.433Z,3.33
2023-09-04T23:52:12.403Z,3.10
2023-09-04T23:54:39.330Z,3.00
2023-09-04T23:57:08.001Z,3.00
2023-09-04T23:59:34.892Z,2.70
